Time;durP1;ratioP1;P1;durP2;ratioP2;P2;SDS_P1;SDS_P2;PMS_P1;PMS_P2;Temp;Humidity;BMP_temperature;BMP_pressure;BME280_temperature;BME280_humidity;BME280_pressure;Samples;Min_cycle;Max_cycle;Signal;HPM_P1;HPM_P2
2023/08/17 00:02:14;;;;;;;19.00;18.33;;;22.50;99.90;;;;;;5071272;28;20216;-65
2023/08/17 00:04:41;;;;;;;19.30;18.63;;;22.50;99.90;;;;;;5071874;28;20234;-66
2023/08/17 00:07:08;;;;;;;15.48;14.93;;;22.50;99.90;;;;;;5070124;28;20880;-67
2023/08/17 00:09:35;;;;;;;18.45;17.83;;;22.30;99.90;;;;;;5069491;28;20209;-67
2023/08/17 00:12:03;;;;;;;18.98;18.30;;;22.20;99.90;;;;;;5074298;28;20227;-64
2023/08/17 00:14:30;;;;;;;18.08;17.48;;;22.10;99.90;;;;;;5073758;28;20655;-64
2023/08/17 00:16:57;;;;;;;13.65;13.15;;;22.10;99.90;;;;;;5073253;28;20668;-65
2023/08/17 00:19:25;;;;;;;17.58;16.98;;;22.20;99.90;;;;;;5072435;28;20207;-65
2023/08/17 00:21:53;;;;;;;18.08;17.45;;;22.20;99.90;;;;;;5072980;28;20219;-66
2023/08/17 00:24:20;;;;;;;20.02;19.33;;;22.10;99.90;;;;;;5072951;28;20211;-66
2023/08/17 00:26:47;;;;;;;19.10;18.45;;;22.10;99.90;;;;;;5072628;28;20227;-63
2023/08/17 00:29:14;;;;;;;18.83;18.17;;;22.20;99.90;;;;;;5071953;28;20210;-64
2023/08/17 00:31:41;;;;;;;18.25;17.63;;;22.10;99.90;;;;;;5072405;28;20281;-65
2023/08/17 00:34:08;;;;;;;16.15;15.55;;;22.10;99.90;;;;;;5071627;28;20295;-63
2023/08/17 00:36:36;;;;;;;17.70;17.10;;;22.10;99.90;;;;;;5073983;28;20200;-66
2023/08/17 00:39:03;;;;;;;16.95;16.33;;;22.10;99.90;;;;;;5084417;28;20588;-70
2023/08/17 00:41:30;;;;;;;17.67;17.05;;;22.10;99.90;;;;;;5076807;28;20227;-65
2023/08/17 00:43:57;;;;;;;16.10;15.55;;;22.20;99.90;;;;;;5073723;28;20211;-65
2023/08/17 00:46:24;;;;;;;17.40;16.77;;;22.10;99.90;;;;;;5073353;28;20674;-64
2023/08/17 00:48:51;;;;;;;15.48;14.95;;;22.10;99.90;;;;;;5073069;28;20302;-64
2023/08/17 00:51:20;;;;;;;15.25;14.73;;;22.10;99.90;;;;;;5072484;28;20223;-63
2023/08/17 00:53:48;;;;;;;16.53;15.93;;;22.00;99.90;;;;;;5074966;28;20203;-64
2023/08/17 00:56:15;;;;;;;16.92;16.10;;;22.00;99.90;;;;;;5078695;28;20268;-64
2023/08/17 00:58:43;;;;;;;17.48;16.88;;;22.00;99.90;;;;;;5085675;28;20238;-68
2023/08/17 01:01:10;;;;;;;13.75;13.25;;;21.90;99.90;;;;;;5080359;28;20203;-64
2023/08/17 01:03:37;;;;;;;18.08;17.45;;;21.90;99.90;;;;;;5073621;28;20728;-65
2023/08/17 01:06:04;;;;;;;14.40;13.85;;;21.90;99.90;;;;;;5073322;28;20231;-63
2023/08/17 01:08:31;;;;;;;16.20;15.60;;;21.90;99.90;;;;;;5072687;28;20207;-63
2023/08/17 01:11:07;;;;;;;15.75;15.20;;;21.90;99.90;;;;;;5072332;28;20203;-68
2023/08/17 01:13:45;;;;;;;17.48;16.88;;;21.90;99.90;;;;;;5072625;28;20214;-64
2023/08/17 01:16:16;;;;;;;14.27;13.77;;;21.90;99.90;;;;;;5072494;28;20203;-65
2023/08/17 01:18:45;;;;;;;16.65;16.05;;;21.80;99.90;;;;;;5074344;28;20189;-65
2023/08/17 01:21:17;;;;;;;17.52;16.85;;;21.70;99.90;;;;;;5072135;28;20594;-67
2023/08/17 01:23:46;;;;;;;18.58;17.95;;;21.70;99.90;;;;;;5074892;28;20215;-66
2023/08/17 01:26:15;;;;;;;17.65;17.05;;;21.60;99.90;;;;;;5072430;28;20219;-65
2023/08/17 01:28:42;;;;;;;16.30;15.70;;;21.50;99.90;;;;;;5072301;28;20215;-66
2023/08/17 01:31:14;;;;;;;17.33;16.73;;;21.50;99.90;;;;;;5071874;28;20211;-65
2023/08/17 01:33:45;;;;;;;19.55;18.85;;;21.40;99.90;;;;;;5067984;28;20222;-67
2023/08/17 01:36:19;;;;;;;15.20;14.68;;;21.30;99.90;;;;;;5071897;28;20203;-66
2023/08/17 01:38:48;;;;;;;15.98;15.38;;;21.40;99.90;;;;;;5071659;28;20203;-64
2023/08/17 01:41:16;;;;;;;19.38;18.67;;;21.40;99.90;;;;;;5071807;28;20235;-66
2023/08/17 01:43:45;;;;;;;17.88;17.23;;;21.40;99.90;;;;;;5071095;28;20695;-67
2023/08/17 01:46:15;;;;;;;19.15;18.48;;;21.40;99.90;;;;;;5070820;28;20246;-66
2023/08/17 01:48:41;;;;;;;18.60;17.95;;;21.50;99.90;;;;;;5071394;28;20210;-66
2023/08/17 01:51:08;;;;;;;16.80;16.23;;;21.50;99.90;;;;;;5070876;28;20207;-66
2023/08/17 01:53:35;;;;;;;15.20;14.68;;;21.50;99.90;;;;;;5071585;28;20289;-67
2023/08/17 01:56:04;;;;;;;16.10;15.52;;;21.50;99.90;;;;;;5071995;28;20218;-66
2023/08/17 01:58:31;;;;;;;17.83;17.08;;;21.40;99.90;;;;;;5070753;28;20223;-66
2023/08/17 02:00:57;;;;;;;14.32;13.80;;;21.50;99.90;;;;;;5069637;28;20215;-67
2023/08/17 02:03:24;;;;;;;17.92;17.33;;;21.60;99.90;;;;;;5069032;28;20217;-67
2023/08/17 02:05:51;;;;;;;16.92;16.35;;;21.60;99.90;;;;;;5072167;28;20204;-65
2023/08/17 02:08:18;;;;;;;18.40;17.75;;;21.60;99.90;;;;;;5071472;28;20708;-68
2023/08/17 02:10:44;;;;;;;17.67;17.05;;;21.60;99.90;;;;;;5070993;28;20296;-64
2023/08/17 02:13:13;;;;;;;18.20;17.58;;;21.50;99.90;;;;;;5071680;28;20459;-67
2023/08/17 02:15:40;;;;;;;15.32;14.77;;;21.60;99.90;;;;;;5071832;28;20226;-66
2023/08/17 02:18:07;;;;;;;14.05;13.55;;;21.70;99.90;;;;;;5071482;28;20203;-65
2023/08/17 02:20:33;;;;;;;16.30;15.73;;;21.60;99.90;;;;;;5069783;28;20211;-67
2023/08/17 02:23:00;;;;;;;14.18;13.68;;;21.60;99.90;;;;;;5070452;28;20231;-67
2023/08/17 02:25:33;;;;;;;15.93;15.27;;;21.60;99.90;;;;;;5070554;28;20190;-66
2023/08/17 02:28:00;;;;;;;14.07;13.55;;;21.60;99.90;;;;;;5070265;28;20231;-68
2023/08/17 02:30:29;;;;;;;13.85;13.35;;;21.50;99.90;;;;;;5069650;28;20203;-67
2023/08/17 02:32:56;;;;;;;14.35;13.85;;;21.60;99.90;;;;;;5085680;22;20237;-64
2023/08/17 02:35:23;;;;;;;15.38;14.85;;;21.60;99.90;;;;;;5069992;28;20213;-65
2023/08/17 02:37:50;;;;;;;15.88;15.32;;;21.60;99.90;;;;;;5070695;28;20203;-63
2023/08/17 02:40:17;;;;;;;16.70;16.13;;;21.70;99.90;;;;;;5069850;28;20575;-63
2023/08/17 02:42:44;;;;;;;13.75;13.25;;;21.70;99.90;;;;;;5070842;28;20219;-64
2023/08/17 02:45:11;;;;;;;14.85;14.35;;;21.70;99.90;;;;;;5071848;28;20205;-65
2023/08/17 02:47:39;;;;;;;15.68;15.13;;;21.70;99.90;;;;;;5071070;28;20693;-65
2023/08/17 02:50:07;;;;;;;13.50;13.00;;;21.70;99.90;;;;;;5071084;28;20204;-64
2023/08/17 02:52:34;;;;;;;14.43;13.93;;;21.70;99.90;;;;;;5074096;28;20226;-64
2023/08/17 02:55:01;;;;;;;16.13;15.55;;;21.70;99.90;;;;;;5070922;28;20203;-63
2023/08/17 02:57:27;;;;;;;15.57;15.07;;;21.70;99.90;;;;;;5075158;28;20282;-65
2023/08/17 02:59:54;;;;;;;14.82;14.32;;;21.70;99.90;;;;;;5074714;28;20211;-65
2023/08/17 03:02:21;;;;;;;14.70;14.20;;;21.70;99.90;;;;;;5071590;28;20223;-65
2023/08/17 03:04:49;;;;;;;15.35;14.85;;;21.70;99.90;;;;;;5070646;28;20664;-64
2023/08/17 03:07:16;;;;;;;15.02;14.52;;;21.70;99.90;;;;;;5071792;28;20227;-65
2023/08/17 03:09:43;;;;;;;15.80;15.23;;;21.70;99.90;;;;;;5069784;28;20207;-65
2023/08/17 03:12:09;;;;;;;16.63;16.08;;;21.80;99.90;;;;;;5070388;28;20259;-63
2023/08/17 03:14:36;;;;;;;16.42;15.85;;;21.80;99.90;;;;;;5070883;28;20211;-64
2023/08/17 03:17:03;;;;;;;15.90;15.30;;;21.80;99.90;;;;;;5070547;28;20202;-64
2023/08/17 03:19:30;;;;;;;14.10;13.60;;;21.80;99.90;;;;;;5069646;28;20252;-64
2023/08/17 03:21:58;;;;;;;14.75;14.23;;;21.80;99.90;;;;;;5070698;28;20231;-63
2023/08/17 03:24:25;;;;;;;14.57;14.07;;;21.80;99.90;;;;;;5070416;28;20207;-66
2023/08/17 03:26:52;;;;;;;17.85;17.20;;;21.80;99.90;;;;;;5068955;28;20284;-64
2023/08/17 03:29:19;;;;;;;14.30;13.80;;;21.70;99.90;;;;;;5070080;28;20218;-65
2023/08/17 03:31:45;;;;;;;14.65;14.15;;;21.70;99.90;;;;;;5074203;28;20583;-63
2023/08/17 03:34:12;;;;;;;14.07;13.57;;;21.70;99.90;;;;;;5090737;28;20209;-63
2023/08/17 03:36:39;;;;;;;15.15;14.65;;;21.60;99.90;;;;;;5090243;28;20232;-63
2023/08/17 03:39:07;;;;;;;14.23;13.63;;;21.60;99.90;;;;;;5089301;28;20651;-63
2023/08/17 03:41:36;;;;;;;13.88;13.35;;;21.60;99.90;;;;;;5090569;28;20226;-64
2023/08/17 03:44:03;;;;;;;13.85;13.35;;;21.60;99.90;;;;;;5102412;28;20213;-65
2023/08/17 03:46:30;;;;;;;13.65;13.15;;;21.70;99.90;;;;;;5109159;28;20198;-64
2023/08/17 03:48:57;;;;;;;14.20;13.70;;;21.70;99.90;;;;;;5109689;28;20317;-64
2023/08/17 03:51:24;;;;;;;15.85;15.27;;;21.70;99.90;;;;;;5106732;28;20286;-65
2023/08/17 03:53:50;;;;;;;15.05;14.52;;;21.70;99.90;;;;;;5094669;28;20451;-65
2023/08/17 03:56:19;;;;;;;14.93;14.38;;;21.70;99.90;;;;;;5094563;28;20556;-64
2023/08/17 03:58:45;;;;;;;15.10;14.60;;;21.70;99.90;;;;;;5095485;28;20198;-65
2023/08/17 04:01:13;;;;;;;15.10;14.57;;;21.70;99.90;;;;;;5094118;28;20293;-63
2023/08/17 04:03:40;;;;;;;13.90;13.40;;;21.70;99.90;;;;;;5095156;28;20287;-64
2023/08/17 04:06:10;;;;;;;16.48;15.93;;;21.70;99.90;;;;;;5094019;28;20213;-64
2023/08/17 04:08:37;;;;;;;19.52;18.80;;;21.70;99.90;;;;;;5093495;28;20664;-64
2023/08/17 04:11:04;;;;;;;14.80;14.20;;;21.70;99.90;;;;;;5093193;28;20211;-65
2023/08/17 04:13:33;;;;;;;15.18;14.65;;;21.70;99.90;;;;;;5093165;28;20246;-65
2023/08/17 04:15:59;;;;;;;13.75;13.25;;;21.60;99.90;;;;;;5093327;28;20202;-65
2023/08/17 04:18:26;;;;;;;15.80;15.25;;;21.60;99.90;;;;;;5096174;28;20205;-64
2023/08/17 04:20:53;;;;;;;14.48;13.98;;;21.60;99.90;;;;;;5098306;28;20207;-64
2023/08/17 04:23:20;;;;;;;14.75;14.25;;;21.60;99.90;;;;;;5099510;28;20222;-64
2023/08/17 04:25:48;;;;;;;13.45;12.95;;;21.60;99.90;;;;;;5096749;28;20199;-65
2023/08/17 04:28:15;;;;;;;13.93;13.43;;;21.60;99.90;;;;;;5099524;28;20222;-63
2023/08/17 04:30:43;;;;;;;13.73;13.23;;;21.50;99.90;;;;;;5096472;28;20282;-66
2023/08/17 04:33:10;;;;;;;13.80;13.30;;;21.50;99.90;;;;;;5093037;28;20231;-64
2023/08/17 04:35:37;;;;;;;15.00;14.48;;;21.40;99.90;;;;;;5097049;28;20213;-65
2023/08/17 04:38:04;;;;;;;13.75;13.15;;;21.40;99.90;;;;;;5101083;28;20248;-65
2023/08/17 04:40:31;;;;;;;14.23;13.73;;;21.50;99.90;;;;;;5104422;28;20202;-65
2023/08/17 04:42:58;;;;;;;13.77;13.27;;;21.50;99.90;;;;;;5103735;28;20632;-65
2023/08/17 04:45:25;;;;;;;14.05;13.55;;;21.60;99.90;;;;;;5096660;28;20211;-64
2023/08/17 04:47:53;;;;;;;13.07;12.63;;;21.60;99.90;;;;;;5093563;28;20241;-64
2023/08/17 04:50:20;;;;;;;13.43;12.98;;;21.70;99.90;;;;;;5092321;28;20198;-63
2023/08/17 04:52:47;;;;;;;14.05;13.55;;;21.70;99.90;;;;;;5092665;28;20684;-65
2023/08/17 04:55:14;;;;;;;14.38;13.88;;;21.70;99.90;;;;;;5092789;28;20207;-64
2023/08/17 04:57:41;;;;;;;14.00;13.50;;;21.70;99.90;;;;;;5091227;28;20202;-64
2023/08/17 05:00:09;;;;;;;14.25;13.75;;;21.70;99.90;;;;;;5091756;28;20202;-64
2023/08/17 05:02:36;;;;;;;15.02;14.52;;;21.60;99.90;;;;;;5091751;28;20336;-64
2023/08/17 05:05:06;;;;;;;14.63;14.13;;;21.70;99.90;;;;;;5091538;28;20205;-63
2023/08/17 05:07:33;;;;;;;14.30;13.80;;;21.60;99.90;;;;;;5093556;28;20213;-63
2023/08/17 05:10:01;;;;;;;14.60;14.02;;;21.60;99.90;;;;;;5092709;28;20702;-65
2023/08/17 05:12:28;;;;;;;13.07;12.68;;;21.60;99.90;;;;;;5091793;28;20229;-64
2023/08/17 05:14:55;;;;;;;13.60;13.10;;;21.70;99.90;;;;;;5092673;28;20213;-63
2023/08/17 05:17:21;;;;;;;14.38;13.88;;;21.70;99.90;;;;;;5092089;28;20198;-64
2023/08/17 05:19:48;;;;;;;14.18;13.68;;;21.70;99.90;;;;;;5091809;28;20305;-64
2023/08/17 05:22:16;;;;;;;14.02;13.52;;;21.70;99.90;;;;;;5092121;28;20230;-65
2023/08/17 05:24:43;;;;;;;14.93;14.43;;;21.80;99.90;;;;;;5091924;28;20202;-63
2023/08/17 05:27:11;;;;;;;15.05;14.55;;;21.80;99.90;;;;;;5092169;28;20213;-64
2023/08/17 05:29:38;;;;;;;14.70;14.18;;;21.80;99.90;;;;;;5091492;28;20682;-64
2023/08/17 05:32:05;;;;;;;14.40;13.90;;;21.90;99.90;;;;;;5092240;28;20246;-65
2023/08/17 05:34:32;;;;;;;15.45;14.85;;;21.80;99.90;;;;;;5091839;28;20206;-63
2023/08/17 05:36:59;;;;;;;14.70;14.10;;;21.90;99.90;;;;;;5092360;28;20302;-63
2023/08/17 05:39:27;;;;;;;13.73;13.23;;;21.80;99.90;;;;;;5091257;28;20213;-64
2023/08/17 05:41:54;;;;;;;14.68;14.10;;;21.80;99.90;;;;;;5093372;28;20656;-64
2023/08/17 05:44:21;;;;;;;14.63;14.13;;;21.80;99.90;;;;;;5093680;28;20202;-64
2023/08/17 05:46:48;;;;;;;14.75;14.25;;;21.80;99.90;;;;;;5094486;28;20224;-64
2023/08/17 05:49:15;;;;;;;14.52;13.93;;;21.80;99.90;;;;;;5093173;28;20360;-63
2023/08/17 05:51:42;;;;;;;14.88;14.38;;;21.90;99.90;;;;;;5092215;28;20229;-65
2023/08/17 05:54:08;;;;;;;14.80;14.30;;;22.00;99.90;;;;;;5091706;28;20202;-65
2023/08/17 05:56:37;;;;;;;14.40;13.90;;;22.10;99.90;;;;;;5091640;28;20206;-65
2023/08/17 05:59:04;;;;;;;15.10;14.60;;;22.10;99.90;;;;;;5091557;28;20203;-63
2023/08/17 06:01:31;;;;;;;14.85;14.35;;;22.20;99.90;;;;;;5091892;28;20477;-65
2023/08/17 06:03:58;;;;;;;14.13;13.63;;;22.20;99.90;;;;;;5091917;28;20250;-65
2023/08/17 06:06:26;;;;;;;15.18;14.63;;;22.30;99.90;;;;;;5092290;28;20202;-65
2023/08/17 06:08:53;;;;;;;15.32;14.75;;;22.30;99.90;;;;;;5092102;28;20249;-64
2023/08/17 06:11:19;;;;;;;15.18;14.65;;;22.30;99.90;;;;;;5090752;28;20213;-63
2023/08/17 06:13:48;;;;;;;13.82;13.32;;;22.30;99.90;;;;;;5092204;28;20237;-64
2023/08/17 06:16:15;;;;;;;15.10;14.60;;;22.20;99.90;;;;;;5091352;28;20572;-67
2023/08/17 06:18:42;;;;;;;14.50;14.00;;;22.40;99.90;;;;;;5092017;28;20213;-65
2023/08/17 06:21:09;;;;;;;13.82;13.32;;;22.40;99.90;;;;;;5091404;28;20213;-65
2023/08/17 06:23:36;;;;;;;15.20;14.60;;;22.50;99.90;;;;;;5098473;28;20206;-65
2023/08/17 06:26:03;;;;;;;13.55;13.05;;;22.60;99.90;;;;;;5094976;28;20216;-66
2023/08/17 06:28:29;;;;;;;14.18;13.68;;;22.60;99.90;;;;;;5096945;28;20260;-66
2023/08/17 06:30:58;;;;;;;13.65;13.13;;;22.60;99.90;;;;;;5093886;28;20620;-66
2023/08/17 06:33:25;;;;;;;15.70;15.15;;;22.50;99.90;;;;;;5092122;28;20226;-64
2023/08/17 06:35:52;;;;;;;13.85;13.35;;;22.50;99.90;;;;;;5094175;28;20549;-64
2023/08/17 06:38:18;;;;;;;14.48;13.98;;;22.50;99.90;;;;;;5090574;28;20537;-64
2023/08/17 06:40:46;;;;;;;14.23;13.73;;;22.50;99.90;;;;;;5089875;28;20206;-64
2023/08/17 06:43:13;;;;;;;15.00;14.45;;;22.50;99.90;;;;;;5090692;28;20734;-64
2023/08/17 06:45:40;;;;;;;15.95;15.35;;;22.40;99.90;;;;;;5090911;28;20209;-63
2023/08/17 06:48:08;;;;;;;17.00;16.30;;;22.50;99.90;;;;;;5090088;28;20779;-65
2023/08/17 06:50:35;;;;;;;16.35;15.75;;;22.30;99.90;;;;;;5089834;28;20203;-63
2023/08/17 06:53:02;;;;;;;15.65;15.10;;;22.30;99.90;;;;;;5090447;28;20237;-65
2023/08/17 06:55:29;;;;;;;17.00;16.40;;;22.20;99.90;;;;;;5090606;28;20578;-63
2023/08/17 06:57:56;;;;;;;19.10;18.42;;;22.20;99.90;;;;;;5090592;28;20199;-64
2023/08/17 07:00:23;;;;;;;18.00;17.33;;;22.10;99.90;;;;;;5091125;28;20300;-64
2023/08/17 07:02:51;;;;;;;17.77;17.08;;;22.10;99.90;;;;;;5090988;28;20261;-63
2023/08/17 07:05:19;;;;;;;17.58;16.92;;;22.10;99.90;;;;;;5091758;28;20241;-65
2023/08/17 07:07:46;;;;;;;19.20;18.40;;;22.10;99.90;;;;;;5091720;28;20206;-65
2023/08/17 07:10:13;;;;;;;15.25;14.65;;;22.20;99.90;;;;;;5090770;28;20230;-65
2023/08/17 07:12:40;;;;;;;15.77;15.20;;;22.20;99.90;;;;;;5091256;28;20755;-64
2023/08/17 07:15:08;;;;;;;17.00;16.38;;;22.30;99.90;;;;;;5089786;28;20260;-64
2023/08/17 07:17:36;;;;;;;16.60;16.00;;;22.50;99.90;;;;;;5090136;28;20199;-64
2023/08/17 07:20:03;;;;;;;15.80;15.25;;;22.40;99.90;;;;;;5091654;28;20236;-63
2023/08/17 07:22:31;;;;;;;13.90;13.40;;;22.30;99.90;;;;;;5096818;28;20336;-64
2023/08/17 07:24:58;;;;;;;15.30;14.75;;;22.40;99.90;;;;;;5097077;28;20664;-64
2023/08/17 07:27:25;;;;;;;16.25;15.68;;;22.60;99.90;;;;;;5096089;28;20238;-65
2023/08/17 07:29:52;;;;;;;13.68;13.07;;;22.60;99.90;;;;;;5095338;28;20770;-65
2023/08/17 07:32:20;;;;;;;13.68;13.18;;;22.70;99.90;;;;;;5096025;28;20230;-64
2023/08/17 07:34:47;;;;;;;14.35;13.73;;;22.70;99.90;;;;;;5095935;28;20210;-64
2023/08/17 07:37:14;;;;;;;14.73;14.13;;;22.80;99.90;;;;;;5096465;28;20719;-64
2023/08/17 07:39:42;;;;;;;15.02;14.50;;;22.70;99.90;;;;;;5094967;28;20206;-64
2023/08/17 07:42:09;;;;;;;17.48;16.88;;;22.80;99.90;;;;;;5094814;28;20260;-64
2023/08/17 07:44:36;;;;;;;15.70;15.18;;;22.90;99.90;;;;;;5096924;28;20206;-64
2023/08/17 07:47:03;;;;;;;13.80;13.30;;;22.90;99.90;;;;;;5097235;28;20206;-64
2023/08/17 07:49:30;;;;;;;12.88;12.38;;;22.90;99.90;;;;;;5096486;28;20345;-64
2023/08/17 07:51:57;;;;;;;12.98;12.55;;;23.00;99.90;;;;;;5097589;28;20226;-64
2023/08/17 07:54:24;;;;;;;12.93;12.52;;;23.10;99.90;;;;;;5096414;28;20205;-65
2023/08/17 07:56:52;;;;;;;13.48;12.98;;;23.30;99.90;;;;;;5096010;28;20207;-63
2023/08/17 07:59:19;;;;;;;13.50;13.00;;;23.50;99.90;;;;;;5096238;28;20198;-64
2023/08/17 08:01:45;;;;;;;13.85;13.35;;;23.50;99.90;;;;;;5097237;28;20608;-64
2023/08/17 08:04:12;;;;;;;13.43;12.93;;;23.50;99.90;;;;;;5096677;28;20297;-64
2023/08/17 08:06:39;;;;;;;12.65;12.20;;;23.50;99.90;;;;;;5096936;28;20206;-64
2023/08/17 08:09:06;;;;;;;12.95;12.45;;;23.40;99.90;;;;;;5096039;28;20340;-64
2023/08/17 08:11:33;;;;;;;13.50;13.00;;;23.50;99.90;;;;;;5096969;28;20711;-65
2023/08/17 08:14:02;;;;;;;13.38;12.88;;;23.90;99.90;;;;;;5096765;28;20544;-65
2023/08/17 08:16:30;;;;;;;13.48;12.98;;;23.90;99.90;;;;;;5095597;28;20313;-64
2023/08/17 08:18:57;;;;;;;13.88;13.38;;;24.00;99.90;;;;;;5096205;28;20203;-63
2023/08/17 08:21:24;;;;;;;14.32;13.82;;;24.10;99.90;;;;;;5097198;28;20629;-65
2023/08/17 08:23:50;;;;;;;16.50;15.90;;;24.20;99.90;;;;;;5104299;28;20208;-64
2023/08/17 08:26:17;;;;;;;14.73;14.23;;;24.30;99.90;;;;;;5108787;28;20206;-63
2023/08/17 08:28:44;;;;;;;13.60;13.10;;;24.40;99.90;;;;;;5107258;28;20218;-64
2023/08/17 08:31:12;;;;;;;14.50;14.00;;;24.10;99.90;;;;;;5101771;28;20234;-64
2023/08/17 08:33:39;;;;;;;13.13;12.63;;;24.30;99.90;;;;;;5072849;22;20234;-68
2023/08/17 08:36:06;;;;;;;14.65;14.13;;;24.40;99.90;;;;;;5054769;28;20212;-67
2023/08/17 08:38:33;;;;;;;14.40;13.90;;;24.60;99.90;;;;;;5055416;28;20196;-67
2023/08/17 08:41:02;;;;;;;13.43;12.93;;;24.70;99.90;;;;;;5051651;28;20440;-68
2023/08/17 08:43:29;;;;;;;18.42;17.70;;;24.90;99.90;;;;;;5052733;28;20231;-67
2023/08/17 08:45:56;;;;;;;13.60;13.10;;;24.90;99.90;;;;;;5052565;28;20767;-66
2023/08/17 08:48:27;;;;;;;14.38;13.77;;;24.80;99.90;;;;;;5052652;28;20215;-66
2023/08/17 08:50:56;;;;;;;14.27;13.77;;;24.70;99.90;;;;;;5052027;28;20204;-66
2023/08/17 08:53:28;;;;;;;14.02;13.52;;;24.60;99.90;;;;;;5053403;28;20353;-67
2023/08/17 08:55:58;;;;;;;13.77;13.27;;;24.60;99.90;;;;;;5054299;28;20269;-67
2023/08/17 08:58:26;;;;;;;16.55;15.95;;;24.60;99.90;;;;;;5054528;28;20306;-67
2023/08/17 09:00:53;;;;;;;14.50;13.95;;;24.60;99.90;;;;;;5054297;28;20297;-67
2023/08/17 09:03:22;;;;;;;14.15;13.65;;;24.90;99.90;;;;;;5053468;28;20255;-67
2023/08/17 09:05:51;;;;;;;13.48;12.98;;;25.20;99.90;;;;;;5054202;28;20212;-68
2023/08/17 09:08:28;;;;;;;13.30;12.80;;;25.10;99.90;;;;;;5053434;28;20211;-68
2023/08/17 09:10:54;;;;;;;13.50;13.00;;;25.00;99.90;;;;;;5052429;28;20215;-67
2023/08/17 09:13:21;;;;;;;13.57;13.07;;;25.00;99.90;;;;;;5055505;28;20310;-67
2023/08/17 09:15:48;;;;;;;13.80;13.30;;;24.90;99.90;;;;;;5053755;28;20219;-67
2023/08/17 09:18:17;;;;;;;15.38;14.85;;;24.90;99.90;;;;;;5053535;28;20214;-67
2023/08/17 09:20:45;;;;;;;16.38;15.77;;;25.00;99.90;;;;;;5053010;28;20250;-66
2023/08/17 09:23:15;;;;;;;16.55;15.95;;;25.20;99.90;;;;;;5053304;28;20227;-66
2023/08/17 09:25:43;;;;;;;16.80;16.20;;;25.40;99.90;;;;;;5051819;28;20497;-67
2023/08/17 09:28:13;;;;;;;17.00;16.40;;;25.20;99.90;;;;;;5052098;28;20200;-67
2023/08/17 09:30:54;;;;;;;16.50;15.90;;;25.40;99.90;;;;;;5050237;28;20224;-66
2023/08/17 09:33:22;;;;;;;21.30;20.38;;;25.60;99.90;;;;;;5051383;28;20243;-67
2023/08/17 09:35:51;;;;;;;16.85;16.15;;;25.60;99.90;;;;;;5052195;28;20208;-67
2023/08/17 09:38:19;;;;;;;20.50;19.80;;;25.50;99.90;;;;;;5070009;28;20215;-67
2023/08/17 09:40:46;;;;;;;19.90;19.10;;;25.20;99.90;;;;;;5055836;28;20207;-68
2023/08/17 09:43:14;;;;;;;18.23;17.60;;;25.40;99.90;;;;;;5065177;28;20315;-67
2023/08/17 09:45:42;;;;;;;17.98;17.27;;;25.30;99.90;;;;;;5053035;28;20206;-67
2023/08/17 09:48:09;;;;;;;14.45;13.93;;;25.60;99.90;;;;;;5052852;28;20594;-67
2023/08/17 09:50:36;;;;;;;16.38;15.77;;;25.60;99.90;;;;;;5050278;28;20270;-67
2023/08/17 09:53:04;;;;;;;17.17;16.58;;;25.70;99.90;;;;;;5052462;28;20224;-66
2023/08/17 09:55:33;;;;;;;14.27;13.75;;;26.00;99.90;;;;;;5052279;28;20204;-67
2023/08/17 09:58:01;;;;;;;15.27;14.73;;;26.00;99.90;;;;;;5052333;28;20235;-66
2023/08/17 10:00:29;;;;;;;15.98;15.40;;;26.10;99.90;;;;;;5050930;28;20642;-66
2023/08/17 10:02:57;;;;;;;17.05;16.45;;;26.20;99.90;;;;;;5051846;28;20223;-67
2023/08/17 10:05:26;;;;;;;16.88;16.27;;;26.40;99.90;;;;;;5052552;28;20208;-67
2023/08/17 10:07:57;;;;;;;15.50;15.00;;;26.50;99.90;;;;;;5053971;28;20295;-67
2023/08/17 10:10:27;;;;;;;15.05;14.55;;;26.70;99.90;;;;;;5054048;28;20259;-67
2023/08/17 10:13:04;;;;;;;14.48;13.98;;;26.90;99.90;;;;;;5051548;28;20270;-67
2023/08/17 10:15:32;;;;;;;14.68;14.18;;;26.90;99.90;;;;;;5051428;28;20602;-67
2023/08/17 10:18:08;;;;;;;15.25;14.73;;;27.00;99.90;;;;;;5051425;28;20266;-66
2023/08/17 10:20:37;;;;;;;14.50;14.00;;;26.90;99.90;;;;;;5050996;28;20297;-66
2023/08/17 10:23:13;;;;;;;14.13;13.60;;;27.10;99.90;;;;;;5050421;28;20224;-67
2023/08/17 10:25:41;;;;;;;13.43;12.93;;;27.20;99.90;;;;;;5050190;28;20214;-66
2023/08/17 10:28:11;;;;;;;13.02;12.52;;;27.30;99.90;;;;;;5050298;28;20227;-66
2023/08/17 10:30:38;;;;;;;12.82;12.35;;;27.60;99.90;;;;;;5049735;28;20224;-66
2023/08/17 10:33:06;;;;;;;12.23;11.82;;;27.70;99.90;;;;;;5049795;28;20258;-68
2023/08/17 10:35:34;;;;;;;13.68;13.18;;;28.00;99.90;;;;;;5049860;28;20200;-65
2023/08/17 10:38:01;;;;;;;14.52;13.98;;;27.80;99.90;;;;;;5050029;28;20545;-66
2023/08/17 10:40:29;;;;;;;12.82;12.32;;;27.60;99.90;;;;;;5049591;28;20204;-65
2023/08/17 10:42:56;;;;;;;12.63;12.13;;;27.40;99.90;;;;;;5049968;28;20335;-67
2023/08/17 10:45:32;;;;;;;12.93;12.43;;;27.30;99.90;;;;;;5050167;28;20290;-66
2023/08/17 10:48:26;;;;;;;23.77;22.63;;;27.30;99.90;;;;;;5049354;28;20226;-66
2023/08/17 10:51:05;;;;;;;14.18;13.65;;;27.00;99.90;;;;;;5041944;28;20220;-66
2023/08/17 10:53:44;;;;;;;12.90;12.50;;;26.60;99.90;;;;;;5050908;28;20238;-66
2023/08/17 10:56:17;;;;;;;13.13;12.63;;;26.40;99.90;;;;;;5050345;28;20207;-66
2023/08/17 10:58:44;;;;;;;12.90;12.40;;;26.50;99.90;;;;;;5050833;28;20218;-67
2023/08/17 11:01:14;;;;;;;13.13;12.63;;;26.70;99.90;;;;;;5053092;28;20220;-66
2023/08/17 11:03:42;;;;;;;12.52;12.02;;;26.80;99.90;;;;;;5050576;28;20305;-66
2023/08/17 11:06:18;;;;;;;13.13;12.63;;;27.00;99.90;;;;;;5051570;28;20219;-67
2023/08/17 11:08:55;;;;;;;12.70;12.27;;;27.20;99.90;;;;;;5051011;28;20593;-66
2023/08/17 11:11:23;;;;;;;12.18;11.68;;;27.30;99.90;;;;;;5048563;28;20247;-66
2023/08/17 11:13:50;;;;;;;11.45;11.05;;;27.70;99.90;;;;;;5049805;28;20223;-67
2023/08/17 11:16:20;;;;;;;14.32;13.82;;;28.00;99.90;;;;;;5050226;28;20211;-67
2023/08/17 11:18:47;;;;;;;15.07;14.38;;;28.10;99.90;;;;;;5049599;28;20223;-66
2023/08/17 11:21:15;;;;;;;13.98;13.48;;;28.20;99.90;;;;;;5049092;28;20212;-66
2023/08/17 11:23:42;;;;;;;13.85;13.35;;;28.30;99.90;;;;;;5049698;28;20228;-67
2023/08/17 11:26:09;;;;;;;13.77;13.27;;;28.40;99.90;;;;;;5050234;28;20207;-67
2023/08/17 11:28:38;;;;;;;12.98;12.48;;;28.70;99.90;;;;;;5051194;28;20210;-67
2023/08/17 11:31:06;;;;;;;13.68;13.18;;;28.80;99.90;;;;;;5062177;28;20219;-65
2023/08/17 11:33:38;;;;;;;12.80;12.30;;;28.90;99.90;;;;;;5053894;28;20246;-66
2023/08/17 11:36:07;;;;;;;13.63;13.13;;;29.10;99.90;;;;;;5061527;28;20204;-67
2023/08/17 11:38:34;;;;;;;14.13;13.63;;;28.90;99.90;;;;;;5049548;28;20225;-66
2023/08/17 11:41:02;;;;;;;13.55;13.05;;;28.70;99.90;;;;;;5049808;28;20294;-66
2023/08/17 11:43:29;;;;;;;14.20;13.60;;;28.80;99.90;;;;;;5050507;28;20310;-67
2023/08/17 11:45:57;;;;;;;13.93;13.43;;;29.10;99.90;;;;;;5050993;28;20195;-66
2023/08/17 11:48:25;;;;;;;13.02;12.63;;;28.90;99.90;;;;;;5050855;28;20242;-67
2023/08/17 11:50:54;;;;;;;13.00;12.52;;;29.10;99.90;;;;;;5051158;28;20231;-68
2023/08/17 11:53:22;;;;;;;13.18;12.70;;;29.40;99.90;;;;;;5050668;28;20646;-67
2023/08/17 11:55:49;;;;;;;14.05;13.55;;;29.60;99.90;;;;;;5049352;28;20210;-68
2023/08/17 11:58:16;;;;;;;14.02;13.52;;;29.80;99.90;;;;;;5049241;28;20207;-67
2023/08/17 12:00:45;;;;;;;12.13;11.65;;;29.90;99.90;;;;;;5048620;28;20204;-66
2023/08/17 12:03:15;;;;;;;14.40;13.82;;;30.10;99.90;;;;;;5049123;28;20231;-68
2023/08/17 12:05:42;;;;;;;13.27;12.77;;;30.10;99.90;;;;;;5049602;28;20689;-66
2023/08/17 12:08:11;;;;;;;13.73;13.23;;;30.00;99.90;;;;;;5053598;28;20295;-67
2023/08/17 12:10:39;;;;;;;22.23;21.33;;;30.00;99.90;;;;;;5050780;28;20223;-67
2023/08/17 12:13:06;;;;;;;13.30;12.80;;;30.00;99.90;;;;;;5053142;28;20235;-67
2023/08/17 12:15:33;;;;;;;13.18;12.68;;;30.10;99.90;;;;;;5053081;28;20204;-67
2023/08/17 12:18:01;;;;;;;137.20;126.45;;;30.30;99.90;;;;;;5053002;28;20214;-68
2023/08/17 12:20:29;;;;;;;16.00;15.40;;;30.20;99.90;;;;;;5052690;28;20206;-68
2023/08/17 12:22:58;;;;;;;16.02;15.43;;;30.00;99.90;;;;;;5052869;28;20713;-67
2023/08/17 12:25:27;;;;;;;14.13;13.65;;;29.90;99.90;;;;;;5052803;28;20212;-67
2023/08/17 12:27:54;;;;;;;25.40;24.17;;;29.70;99.90;;;;;;5053222;28;20583;-67
2023/08/17 12:30:28;;;;;;;25.52;24.42;;;29.40;99.90;;;;;;5052139;28;20737;-66